createdAt,value
2019-02-24T00:02:23.539Z,14.00
2019-02-24T00:05:25.280Z,13.90
2019-02-24T00:08:27.039Z,13.90
2019-02-24T00:11:29.141Z,13.80
2019-02-24T00:14:31.142Z,13.80
2019-02-24T00:17:34.738Z,13.80
2019-02-24T00:20:36.487Z,13.70
2019-02-24T00:23:39.638Z,13.70
2019-02-24T00:26:41.290Z,13.60
2019-02-24T00:29:42.765Z,13.60
2019-02-24T00:32:44.276Z,13.50
2019-02-24T00:35:45.799Z,13.50
2019-02-24T00:38:50.014Z,13.40
2019-02-24T00:41:51.584Z,13.40
2019-02-24T00:44:53.349Z,13.40
2019-02-24T00:47:54.816Z,13.30
2019-02-24T00:50:56.276Z,13.30
2019-02-24T00:53:57.865Z,13.30
2019-02-24T00:56:59.335Z,13.20
2019-02-24T01:00:00.792Z,13.20
2019-02-24T01:03:02.437Z,13.10
2019-02-24T01:06:04.163Z,13.10
2019-02-24T01:09:06.856Z,13.10
2019-02-24T01:12:11.060Z,13.00
2019-02-24T01:15:12.228Z,13.00
2019-02-24T01:18:16.362Z,13.00
2019-02-24T01:21:17.995Z,12.90
2019-02-24T01:24:19.639Z,12.90
2019-02-24T01:27:21.152Z,12.80
2019-02-24T01:30:22.578Z,12.80
2019-02-24T01:33:24.050Z,12.70
2019-02-24T01:36:25.436Z,12.70
2019-02-24T01:39:27.001Z,12.60
2019-02-24T01:42:28.434Z,12.60
2019-02-24T01:45:30.245Z,12.60
2019-02-24T01:48:31.722Z,12.60
2019-02-24T01:51:33.375Z,12.50
2019-02-24T01:54:35.043Z,12.50
2019-02-24T01:57:36.777Z,12.40
2019-02-24T02:00:39.348Z,12.40
2019-02-24T02:03:40.905Z,12.30
2019-02-24T02:06:42.375Z,12.30
2019-02-24T02:09:43.835Z,12.30
2019-02-24T02:12:46.866Z,12.20
2019-02-24T02:15:49.356Z,12.20
2019-02-24T02:18:50.831Z,12.20
2019-02-24T02:21:52.468Z,12.10
2019-02-24T02:24:53.939Z,12.10
2019-02-24T02:27:55.885Z,12.10
2019-02-24T02:30:57.440Z,12.00
2019-02-24T02:33:59.088Z,12.00
2019-02-24T02:37:01.976Z,11.90
2019-02-24T02:40:03.715Z,11.90
2019-02-24T02:43:06.189Z,11.90
2019-02-24T02:46:07.665Z,11.80
2019-02-24T02:49:09.158Z,11.80
2019-02-24T02:52:13.153Z,11.70
2019-02-24T02:55:14.804Z,11.70
2019-02-24T02:58:18.019Z,11.60
2019-02-24T03:01:19.555Z,11.60
2019-02-24T03:04:20.997Z,11.60
2019-02-24T03:07:27.280Z,11.60
2019-02-24T03:10:28.643Z,11.50
2019-02-24T03:13:30.035Z,11.50
2019-02-24T03:16:31.414Z,11.40
2019-02-24T03:19:32.822Z,11.40
2019-02-24T03:22:34.206Z,11.40
2019-02-24T03:25:35.660Z,11.30
2019-02-24T03:28:38.018Z,11.30
2019-02-24T03:31:39.630Z,11.20
2019-02-24T03:34:41.334Z,11.20
2019-02-24T03:37:42.784Z,11.20
2019-02-24T03:40:44.244Z,11.10
2019-02-24T03:43:45.596Z,11.10
2019-02-24T03:46:46.959Z,11.10
2019-02-24T03:49:48.445Z,11.00
2019-02-24T03:52:49.922Z,11.00
2019-02-24T03:55:51.269Z,10.90
2019-02-24T03:58:53.601Z,10.90
2019-02-24T04:01:55.040Z,10.90
2019-02-24T04:04:56.476Z,10.80
2019-02-24T04:07:57.902Z,10.80
2019-02-24T04:10:59.288Z,10.70
2019-02-24T04:14:00.749Z,10.70
2019-02-24T04:17:02.159Z,10.70
2019-02-24T04:20:03.532Z,10.60
2019-02-24T04:23:04.933Z,10.60
2019-02-24T04:26:06.320Z,10.60
2019-02-24T04:29:07.715Z,10.50
2019-02-24T04:32:09.079Z,10.50
2019-02-24T04:35:10.588Z,10.40
2019-02-24T04:38:11.924Z,10.40
2019-02-24T04:41:13.293Z,10.40
2019-02-24T04:44:15.690Z,10.40
2019-02-24T04:47:17.136Z,10.30
2019-02-24T04:50:18.598Z,10.30
2019-02-24T04:53:20.051Z,10.20
2019-02-24T04:56:21.601Z,10.20
2019-02-24T04:59:23.048Z,10.10
2019-02-24T05:02:24.443Z,10.10
2019-02-24T05:05:25.818Z,10.10
2019-02-24T05:08:27.301Z,10.10
2019-02-24T05:11:28.702Z,10.00
2019-02-24T05:14:30.174Z,10.00
2019-02-24T05:17:31.574Z,9.90
2019-02-24T05:20:33.453Z,9.90
2019-02-24T05:23:34.985Z,9.90
2019-02-24T05:26:36.407Z,9.90
2019-02-24T05:29:45.730Z,9.90
2019-02-24T05:32:42.066Z,9.80
2019-02-24T05:35:43.509Z,9.70
2019-02-24T05:38:45.048Z,9.70
2019-02-24T05:41:46.930Z,9.70
2019-02-24T05:44:49.627Z,9.60
2019-02-24T05:47:51.168Z,9.60
2019-02-24T05:50:52.568Z,9.50
2019-02-24T05:53:53.969Z,9.50
2019-02-24T05:56:55.367Z,9.40
2019-02-24T05:59:56.839Z,9.40
2019-02-24T06:02:58.238Z,9.40
2019-02-24T06:05:59.695Z,9.40
2019-02-24T06:09:01.054Z,9.30
2019-02-24T06:12:04.255Z,9.30
2019-02-24T06:15:06.059Z,9.30
2019-02-24T06:18:07.432Z,9.20
2019-02-24T06:21:08.764Z,9.20
2019-02-24T06:24:10.349Z,9.20
2019-02-24T06:27:11.764Z,9.10
2019-02-24T06:30:13.134Z,9.10
2019-02-24T06:33:14.497Z,9.10
2019-02-24T06:36:15.868Z,9.10
2019-02-24T06:39:17.254Z,9.00
2019-02-24T06:42:18.707Z,9.10
2019-02-24T06:45:20.102Z,9.00
2019-02-24T06:48:21.474Z,9.00
2019-02-24T06:51:22.953Z,9.00
2019-02-24T06:54:24.319Z,9.00
2019-02-24T06:57:25.658Z,9.00
2019-02-24T07:00:27.040Z,9.00
2019-02-24T07:03:28.635Z,8.90
2019-02-24T07:06:30.008Z,8.90
2019-02-24T07:09:31.358Z,9.00
2019-02-24T07:12:32.717Z,9.00
2019-02-24T07:15:34.208Z,9.00
2019-02-24T07:18:35.670Z,9.00
2019-02-24T07:21:37.094Z,9.00
2019-02-24T07:24:38.481Z,9.00
2019-02-24T07:27:39.853Z,8.90
2019-02-24T07:30:41.309Z,8.90
2019-02-24T07:33:42.726Z,8.90
2019-02-24T07:36:44.109Z,9.00
2019-02-24T07:39:45.508Z,9.00
2019-02-24T07:42:46.869Z,9.00
2019-02-24T07:45:48.280Z,8.90
2019-02-24T07:48:51.360Z,9.00
2019-02-24T07:51:52.789Z,9.00
2019-02-24T07:54:54.447Z,9.00
2019-02-24T07:57:56.192Z,9.10
2019-02-24T08:00:58.162Z,9.10
2019-02-24T08:03:59.891Z,9.20
2019-02-24T08:07:01.767Z,9.20
2019-02-24T08:10:03.233Z,9.30
2019-02-24T08:13:04.732Z,9.40
2019-02-24T08:16:06.147Z,9.50
2019-02-24T08:19:07.742Z,9.60
2019-02-24T08:22:09.147Z,9.70
2019-02-24T08:25:10.593Z,9.80
2019-02-24T08:28:12.148Z,9.90
2019-02-24T08:31:14.061Z,10.00
2019-02-24T08:34:15.442Z,10.10
2019-02-24T08:37:16.986Z,10.20
2019-02-24T08:40:18.400Z,10.30
2019-02-24T08:43:19.868Z,10.30
2019-02-24T08:46:21.426Z,10.40
2019-02-24T08:49:23.943Z,10.50
2019-02-24T08:52:25.719Z,10.60
2019-02-24T08:55:27.265Z,10.70
2019-02-24T08:58:28.819Z,10.90
2019-02-24T09:01:30.284Z,11.00
2019-02-24T09:04:31.890Z,11.10
2019-02-24T09:07:33.351Z,11.20
2019-02-24T09:10:34.791Z,11.30
2019-02-24T09:13:36.699Z,11.30
2019-02-24T09:16:38.234Z,11.40
2019-02-24T09:19:39.835Z,11.50
2019-02-24T09:22:41.295Z,11.60
2019-02-24T09:25:42.723Z,11.70
2019-02-24T09:28:44.258Z,11.80
2019-02-24T09:31:45.965Z,11.90
2019-02-24T09:34:47.492Z,12.00
2019-02-24T09:37:49.029Z,12.10
2019-02-24T09:40:50.531Z,12.20
2019-02-24T09:43:51.952Z,12.30
2019-02-24T09:46:53.362Z,12.50
2019-02-24T09:49:54.947Z,12.60
2019-02-24T09:52:56.443Z,12.70
2019-02-24T09:55:58.164Z,12.80
2019-02-24T09:58:59.630Z,12.90
2019-02-24T10:02:01.205Z,13.10
2019-02-24T10:05:02.912Z,13.20
2019-02-24T10:08:05.102Z,13.30
2019-02-24T10:11:06.688Z,13.40
2019-02-24T10:14:08.206Z,13.50
2019-02-24T10:17:09.729Z,13.70
2019-02-24T10:20:11.514Z,13.70
2019-02-24T10:23:13.003Z,13.90
2019-02-24T10:26:14.545Z,14.10
2019-02-24T10:29:16.076Z,14.20
2019-02-24T10:32:17.512Z,14.40
2019-02-24T10:35:19.035Z,14.50
2019-02-24T10:38:20.678Z,14.70
2019-02-24T10:41:22.268Z,14.90
2019-02-24T10:44:23.805Z,15.00
2019-02-24T10:47:25.250Z,15.10
2019-02-24T10:50:26.784Z,15.30
2019-02-24T10:53:28.347Z,15.60
2019-02-24T10:56:30.792Z,15.90
2019-02-24T10:59:32.875Z,16.20
2019-02-24T11:02:34.490Z,16.30
2019-02-24T11:05:36.023Z,16.50
2019-02-24T11:08:37.897Z,16.70
2019-02-24T11:11:39.501Z,16.80
2019-02-24T11:14:41.022Z,17.00
2019-02-24T11:17:42.433Z,17.10
2019-02-24T11:20:43.900Z,17.30
2019-02-24T11:23:45.369Z,17.50
2019-02-24T11:26:46.834Z,17.70
2019-02-24T11:29:48.754Z,17.90
2019-02-24T11:32:50.255Z,18.10
2019-02-24T11:35:51.735Z,18.20
2019-02-24T11:38:53.285Z,18.40
2019-02-24T11:41:54.787Z,18.60
2019-02-24T11:44:56.314Z,18.80
2019-02-24T11:47:58.258Z,18.90
2019-02-24T11:50:59.912Z,19.10
2019-02-24T11:54:01.642Z,19.30
2019-02-24T11:57:03.331Z,19.50
2019-02-24T12:00:07.072Z,19.70
2019-02-24T12:03:12.235Z,19.90
2019-02-24T12:06:14.227Z,20.10
2019-02-24T12:09:15.957Z,20.20
2019-02-24T12:12:17.708Z,20.40
2019-02-24T12:15:19.468Z,20.40
2019-02-24T12:18:21.244Z,20.30
2019-02-24T12:21:24.324Z,20.40
2019-02-24T12:24:25.906Z,20.50
2019-02-24T12:27:27.754Z,20.60
2019-02-24T12:30:29.589Z,20.70
2019-02-24T12:33:31.242Z,20.90
2019-02-24T12:36:32.949Z,21.00
2019-02-24T12:39:34.788Z,21.10
2019-02-24T12:42:36.478Z,21.30
2019-02-24T12:45:38.110Z,21.40
2019-02-24T12:48:39.668Z,21.60
2019-02-24T12:51:41.356Z,21.70
2019-02-24T12:54:42.810Z,21.90
2019-02-24T12:57:44.314Z,22.00
2019-02-24T13:00:45.883Z,22.10
2019-02-24T13:03:47.346Z,22.30
2019-02-24T13:06:49.377Z,22.50
2019-02-24T13:09:50.978Z,22.60
2019-02-24T13:12:52.516Z,22.80
2019-02-24T13:15:54.150Z,22.90
2019-02-24T13:18:56.021Z,23.10
2019-02-24T13:21:57.682Z,23.20
2019-02-24T13:24:59.861Z,23.40
2019-02-24T13:28:01.448Z,23.50
2019-02-24T13:31:03.085Z,23.70
2019-02-24T13:34:05.315Z,23.80
2019-02-24T13:37:06.876Z,23.90
2019-02-24T13:40:09.722Z,24.10
2019-02-24T13:43:11.293Z,24.20
2019-02-24T13:46:12.953Z,24.30
2019-02-24T13:49:14.471Z,24.40
2019-02-24T13:52:16.043Z,24.50
2019-02-24T13:55:17.953Z,24.70
2019-02-24T13:58:20.930Z,24.80
2019-02-24T14:01:22.687Z,24.90
2019-02-24T14:04:26.191Z,25.00
2019-02-24T14:07:27.881Z,25.20
2019-02-24T14:10:29.601Z,25.30
2019-02-24T14:13:31.216Z,25.50
2019-02-24T14:16:32.906Z,25.60
2019-02-24T14:19:34.570Z,25.80
2019-02-24T14:22:37.639Z,25.90
2019-02-24T14:25:41.251Z,26.10
2019-02-24T14:28:42.585Z,26.20
2019-02-24T14:31:44.277Z,26.30
2019-02-24T14:34:45.897Z,26.40
2019-02-24T14:37:47.466Z,26.60
2019-02-24T14:40:49.019Z,26.70
2019-02-24T14:43:50.637Z,26.90
2019-02-24T14:46:52.329Z,27.00
2019-02-24T14:49:53.832Z,27.10
2019-02-24T14:52:55.311Z,27.20
2019-02-24T14:55:56.877Z,27.30
2019-02-24T14:58:58.408Z,27.40
2019-02-24T15:02:00.446Z,27.40
2019-02-24T15:05:02.189Z,27.50
2019-02-24T15:08:03.790Z,27.50
2019-02-24T15:11:05.860Z,27.60
2019-02-24T15:14:07.515Z,27.60
2019-02-24T15:17:09.700Z,27.60
2019-02-24T15:20:16.094Z,27.70
2019-02-24T15:23:17.944Z,27.80
2019-02-24T15:26:20.957Z,28.00
2019-02-24T15:29:22.865Z,28.20
2019-02-24T15:32:24.433Z,28.30
2019-02-24T15:35:27.754Z,28.60
2019-02-24T15:38:29.418Z,28.80
2019-02-24T15:41:31.403Z,29.00
2019-02-24T15:44:33.013Z,29.30
2019-02-24T15:47:34.654Z,29.60
2019-02-24T15:50:36.545Z,30.00
2019-02-24T15:53:38.127Z,30.30
2019-02-24T15:56:39.626Z,30.80
2019-02-24T15:59:41.247Z,31.20
2019-02-24T16:02:43.221Z,31.70
2019-02-24T16:05:44.827Z,31.80
2019-02-24T16:08:46.328Z,32.00
2019-02-24T16:11:47.873Z,31.80
2019-02-24T16:14:49.394Z,31.00
2019-02-24T16:17:51.440Z,30.40
2019-02-24T16:20:53.075Z,30.00
2019-02-24T16:23:55.065Z,30.00
2019-02-24T16:26:56.764Z,30.00
2019-02-24T16:29:58.313Z,29.90
2019-02-24T16:33:00.157Z,30.40
2019-02-24T16:36:02.937Z,30.70
2019-02-24T16:39:05.038Z,30.80
2019-02-24T16:42:07.550Z,30.60
2019-02-24T16:45:10.745Z,30.40
2019-02-24T16:48:12.370Z,30.00
2019-02-24T16:51:13.926Z,29.80
2019-02-24T16:54:15.415Z,29.50
2019-02-24T16:57:17.362Z,28.80
2019-02-24T17:00:21.099Z,28.20
2019-02-24T17:03:23.085Z,27.80
2019-02-24T17:06:24.693Z,27.40
2019-02-24T17:09:26.197Z,27.00
2019-02-24T17:12:27.903Z,26.70
2019-02-24T17:15:32.907Z,26.60
2019-02-24T17:18:34.521Z,26.50
2019-02-24T17:21:36.724Z,26.20
2019-02-24T17:24:38.820Z,26.10
2019-02-24T17:27:40.372Z,26.00
2019-02-24T17:30:41.880Z,25.80
2019-02-24T17:33:43.524Z,25.60
2019-02-24T17:36:45.475Z,25.30
2019-02-24T17:39:47.127Z,25.20
2019-02-24T17:42:48.783Z,25.10
2019-02-24T17:45:53.859Z,25.00
2019-02-24T17:48:56.404Z,24.80
2019-02-24T17:51:58.255Z,24.70
2019-02-24T17:54:59.916Z,24.50
2019-02-24T17:58:01.470Z,24.50
2019-02-24T18:01:04.659Z,24.40
2019-02-24T18:04:06.262Z,24.30
2019-02-24T18:07:08.158Z,24.30
2019-02-24T18:10:09.626Z,24.20
2019-02-24T18:13:11.409Z,24.00
2019-02-24T18:16:13.472Z,24.00
2019-02-24T18:19:15.050Z,23.90
2019-02-24T18:22:16.690Z,23.80
2019-02-24T18:25:18.584Z,23.60
2019-02-24T18:28:20.201Z,23.50
2019-02-24T18:31:21.932Z,23.50
2019-02-24T18:34:23.645Z,23.40
2019-02-24T18:37:26.110Z,23.30
2019-02-24T18:40:27.654Z,23.20
2019-02-24T18:43:29.205Z,23.10
2019-02-24T18:46:30.642Z,23.00
2019-02-24T18:49:32.415Z,22.90
2019-02-24T18:52:34.415Z,22.70
2019-02-24T18:55:36.037Z,22.70
2019-02-24T18:58:37.881Z,22.60
2019-02-24T19:01:39.522Z,22.50
2019-02-24T19:04:41.128Z,22.40
2019-02-24T19:07:44.027Z,22.20
2019-02-24T19:10:45.799Z,22.10
2019-02-24T19:13:48.477Z,21.90
2019-02-24T19:16:50.290Z,21.70
2019-02-24T19:19:51.846Z,21.60
2019-02-24T19:22:53.401Z,21.50
2019-02-24T19:25:55.027Z,21.40
2019-02-24T19:28:56.991Z,21.30
2019-02-24T19:31:58.581Z,21.30
2019-02-24T19:35:00.287Z,21.20
2019-02-24T19:38:02.317Z,21.10
2019-02-24T19:41:04.382Z,21.00
2019-02-24T19:44:06.041Z,20.90
2019-02-24T19:47:07.622Z,20.80
2019-02-24T19:50:13.131Z,20.70
2019-02-24T19:53:16.073Z,20.60
2019-02-24T19:56:17.543Z,20.50
2019-02-24T19:59:19.134Z,20.40
2019-02-24T20:02:20.697Z,20.30
2019-02-24T20:05:23.568Z,20.20
2019-02-24T20:08:25.200Z,20.20
2019-02-24T20:11:26.804Z,20.10
2019-02-24T20:14:28.854Z,20.00
2019-02-24T20:17:30.441Z,19.90
2019-02-24T20:20:32.055Z,19.80
2019-02-24T20:23:33.625Z,19.80
2019-02-24T20:26:35.386Z,19.70
2019-02-24T20:29:37.079Z,19.60
2019-02-24T20:32:38.816Z,19.60
2019-02-24T20:35:40.651Z,19.50
2019-02-24T20:38:42.195Z,19.40
2019-02-24T20:41:43.785Z,19.30
2019-02-24T20:44:45.314Z,19.20
2019-02-24T20:47:47.102Z,19.20
2019-02-24T20:50:48.685Z,19.10
2019-02-24T20:53:50.234Z,19.10
2019-02-24T20:56:51.825Z,19.00
2019-02-24T20:59:53.631Z,19.00
2019-02-24T21:02:55.662Z,18.90
2019-02-24T21:05:57.562Z,18.80
2019-02-24T21:08:59.126Z,18.70
2019-02-24T21:12:00.687Z,18.70
2019-02-24T21:15:02.167Z,18.60
2019-02-24T21:18:03.689Z,18.50
2019-02-24T21:21:05.569Z,18.50
2019-02-24T21:24:07.085Z,18.40
2019-02-24T21:27:08.618Z,18.40
2019-02-24T21:30:12.275Z,18.30
2019-02-24T21:33:14.217Z,18.20
2019-02-24T21:36:15.822Z,18.20
2019-02-24T21:39:17.298Z,18.10
2019-02-24T21:42:18.810Z,18.00
2019-02-24T21:45:20.847Z,18.00
2019-02-24T21:48:22.297Z,17.90
2019-02-24T21:51:24.079Z,17.80
2019-02-24T21:54:25.962Z,17.70
2019-02-24T21:57:27.468Z,17.70
2019-02-24T22:00:28.960Z,17.60
2019-02-24T22:03:30.409Z,17.60
2019-02-24T22:06:31.921Z,17.50
2019-02-24T22:09:33.412Z,17.40
2019-02-24T22:12:34.939Z,17.40
2019-02-24T22:15:36.786Z,17.30
2019-02-24T22:18:38.228Z,17.30
2019-02-24T22:21:39.771Z,17.20
2019-02-24T22:24:41.264Z,17.10
2019-02-24T22:27:42.673Z,17.10
2019-02-24T22:30:44.159Z,17.10
2019-02-24T22:33:45.621Z,17.00
2019-02-24T22:36:47.084Z,16.90
2019-02-24T22:39:48.556Z,16.90
2019-02-24T22:42:50.295Z,16.80
2019-02-24T22:45:51.843Z,16.80
2019-02-24T22:48:53.333Z,16.70
2019-02-24T22:51:54.769Z,16.60
2019-02-24T22:54:56.249Z,16.60
2019-02-24T22:57:57.746Z,16.50
2019-02-24T23:01:14.366Z,16.50
2019-02-24T23:04:17.637Z,16.40
2019-02-24T23:07:19.189Z,16.40
2019-02-24T23:10:20.728Z,16.30
2019-02-24T23:13:22.641Z,16.30
2019-02-24T23:16:24.309Z,16.20
2019-02-24T23:19:25.961Z,16.20
2019-02-24T23:22:27.480Z,16.10
2019-02-24T23:25:28.944Z,16.10
2019-02-24T23:28:30.455Z,16.00
2019-02-24T23:31:31.924Z,16.00
2019-02-24T23:34:33.363Z,15.90
2019-02-24T23:37:34.778Z,15.90
2019-02-24T23:40:36.576Z,15.80
2019-02-24T23:43:38.018Z,15.80
2019-02-24T23:46:39.405Z,15.70
2019-02-24T23:49:40.852Z,15.70
2019-02-24T23:52:42.268Z,15.60
2019-02-24T23:55:43.731Z,15.60
2019-02-24T23:58:45.123Z,15.50
